createdAt,value
2022-08-20T00:00:44.736Z,1007.56
2022-08-20T00:01:44.938Z,1007.55
2022-08-20T00:02:45.058Z,1007.57
2022-08-20T00:03:49.989Z,1007.58
2022-08-20T00:04:46.306Z,1007.60
2022-08-20T00:05:45.466Z,1007.59
2022-08-20T00:06:45.638Z,1007.61
2022-08-20T00:07:45.806Z,1007.59
2022-08-20T00:08:45.968Z,1007.57
2022-08-20T00:09:46.118Z,1007.55
2022-08-20T00:10:46.264Z,1007.66
2022-08-20T00:11:46.417Z,1007.66
2022-08-20T00:12:46.666Z,1007.60
2022-08-20T00:13:46.746Z,1007.59
2022-08-20T00:14:46.905Z,1007.56
2022-08-20T00:15:47.057Z,1007.59
2022-08-20T00:16:47.218Z,1007.58
2022-08-20T00:17:47.386Z,1007.62
2022-08-20T00:18:47.569Z,1007.59
2022-08-20T00:19:47.753Z,1007.59
2022-08-20T00:20:47.846Z,1007.58
2022-08-20T00:21:47.998Z,1007.60
2022-08-20T00:22:48.166Z,1007.55
2022-08-20T00:23:48.319Z,1007.57
2022-08-20T00:24:48.499Z,1007.54
2022-08-20T00:25:48.587Z,1007.54
2022-08-20T00:26:52.432Z,1007.60
2022-08-20T00:27:48.898Z,1007.61
2022-08-20T00:28:49.092Z,1007.57
2022-08-20T00:29:49.267Z,1007.57
2022-08-20T00:30:49.366Z,1007.61
2022-08-20T00:31:49.508Z,1007.60
2022-08-20T00:32:49.735Z,1007.61
2022-08-20T00:33:49.828Z,1007.59
2022-08-20T00:34:50.006Z,1007.61
2022-08-20T00:35:50.147Z,1007.65
2022-08-20T00:36:50.308Z,1007.61
2022-08-20T00:37:50.468Z,1007.61
2022-08-20T00:38:50.639Z,1007.62
2022-08-20T00:39:50.907Z,1007.62
2022-08-20T00:40:50.836Z,1007.57
2022-08-20T00:41:51.028Z,1007.60
2022-08-20T00:42:51.169Z,1007.61
2022-08-20T00:43:51.340Z,1007.63
2022-08-20T00:44:51.547Z,1007.60
2022-08-20T00:45:51.635Z,1007.65
2022-08-20T00:46:51.850Z,1007.60
2022-08-20T00:47:52.045Z,1007.65
2022-08-20T00:48:52.104Z,1007.64
2022-08-20T00:49:52.328Z,1007.63
2022-08-20T00:50:52.430Z,1007.62
2022-08-20T00:51:52.578Z,1007.57
2022-08-20T00:52:52.744Z,1007.55
2022-08-20T00:53:52.908Z,1007.62
2022-08-20T00:54:53.060Z,1007.59
2022-08-20T00:55:53.243Z,1007.63
2022-08-20T00:56:53.368Z,1007.65
2022-08-20T00:58:01.089Z,1007.60
2022-08-20T00:58:54.690Z,1007.67
2022-08-20T00:59:53.839Z,1007.68
2022-08-20T01:00:54.008Z,1007.62
2022-08-20T01:01:55.514Z,1007.65
2022-08-20T01:02:54.271Z,1007.65
2022-08-20T01:03:54.427Z,1007.64
2022-08-20T01:04:54.577Z,1007.65
2022-08-20T01:05:54.741Z,1007.67
2022-08-20T01:06:54.898Z,1007.73
2022-08-20T01:07:55.197Z,1007.80
2022-08-20T01:08:55.206Z,1007.73
2022-08-20T01:09:58.979Z,1007.75
2022-08-20T01:10:55.506Z,1007.77
2022-08-20T01:11:55.603Z,1007.79
2022-08-20T01:12:59.539Z,1007.76
2022-08-20T01:13:55.847Z,1007.80
2022-08-20T01:14:56.009Z,1007.79
2022-08-20T01:15:56.212Z,1007.78
2022-08-20T01:16:56.351Z,1007.76
2022-08-20T01:17:57.364Z,1007.80
2022-08-20T01:18:56.618Z,1007.79
2022-08-20T01:19:57.517Z,1007.81
2022-08-20T01:20:56.958Z,1007.86
2022-08-20T01:21:57.060Z,1007.81
2022-08-20T01:22:57.181Z,1007.85
2022-08-20T01:23:57.329Z,1007.81
2022-08-20T01:24:57.487Z,1007.80
2022-08-20T01:25:57.652Z,1007.86
2022-08-20T01:26:57.839Z,1007.86
2022-08-20T01:27:58.383Z,1007.88
2022-08-20T01:28:58.117Z,1007.90
2022-08-20T01:29:58.275Z,1007.87
2022-08-20T01:30:58.406Z,1007.87
2022-08-20T01:31:58.579Z,1007.87
2022-08-20T01:32:58.721Z,1007.89
2022-08-20T01:33:58.816Z,1007.91
2022-08-20T01:34:58.987Z,1007.92
2022-08-20T01:35:59.128Z,1007.94
2022-08-20T01:36:59.304Z,1007.89
2022-08-20T01:37:59.460Z,1007.93
2022-08-20T01:38:59.616Z,1007.96
2022-08-20T01:39:59.799Z,1007.95
2022-08-20T01:40:59.920Z,1007.98
2022-08-20T01:42:00.075Z,1008.02
2022-08-20T01:43:00.237Z,1008.02
2022-08-20T01:44:00.449Z,1007.99
2022-08-20T01:45:00.611Z,1007.97
2022-08-20T01:46:00.718Z,1008.00
2022-08-20T01:47:00.921Z,1008.02
2022-08-20T01:48:01.098Z,1008.01
2022-08-20T01:49:01.221Z,1008.09
2022-08-20T01:50:01.309Z,1008.10
2022-08-20T01:51:01.456Z,1008.09
2022-08-20T01:52:01.609Z,1008.18
2022-08-20T01:53:01.778Z,1008.17
2022-08-20T01:54:01.933Z,1008.17
2022-08-20T01:55:02.088Z,1008.14
2022-08-20T01:56:02.249Z,1008.19
2022-08-20T01:57:02.413Z,1008.14
2022-08-20T01:58:02.567Z,1008.18
2022-08-20T01:59:02.718Z,1008.20
2022-08-20T02:00:02.894Z,1008.19
2022-08-20T02:01:03.010Z,1008.15
2022-08-20T02:02:03.091Z,1008.18
2022-08-20T02:03:03.259Z,1008.14
2022-08-20T02:04:03.386Z,1008.17
2022-08-20T02:05:03.567Z,1008.23
2022-08-20T02:06:03.720Z,1008.20
2022-08-20T02:07:03.877Z,1008.29
2022-08-20T02:08:04.052Z,1008.19
2022-08-20T02:09:04.139Z,1008.19
2022-08-20T02:10:04.307Z,1008.16
2022-08-20T02:11:04.459Z,1008.16
2022-08-20T02:12:04.626Z,1008.20
2022-08-20T02:13:04.800Z,1008.18
2022-08-20T02:14:04.948Z,1008.10
2022-08-20T02:15:05.088Z,1008.13
2022-08-20T02:16:05.239Z,1008.11
2022-08-20T02:17:05.427Z,1008.15
2022-08-20T02:18:05.580Z,1008.13
2022-08-20T02:19:05.752Z,1008.16
2022-08-20T02:20:05.912Z,1008.16
2022-08-20T02:21:06.079Z,1008.06
2022-08-20T02:22:06.228Z,1008.11
2022-08-20T02:23:06.400Z,1008.14
2022-08-20T02:24:06.553Z,1008.17
2022-08-20T02:25:06.708Z,1008.12
2022-08-20T02:26:06.852Z,1008.12
2022-08-20T02:27:07.008Z,1008.11
2022-08-20T02:28:07.202Z,1008.09
2022-08-20T02:29:07.338Z,1008.07
2022-08-20T02:30:08.210Z,1008.07
2022-08-20T02:31:07.621Z,1008.07
2022-08-20T02:32:32.305Z,1008.06
2022-08-20T02:33:08.915Z,1008.08
2022-08-20T02:34:22.566Z,1008.08
2022-08-20T02:35:09.230Z,1008.08
2022-08-20T02:36:08.372Z,1008.09
2022-08-20T02:37:08.531Z,1008.15
2022-08-20T02:38:08.670Z,1008.11
2022-08-20T02:39:08.858Z,1008.12
2022-08-20T02:40:09.008Z,1008.10
2022-08-20T02:41:09.142Z,1008.09
2022-08-20T02:42:09.324Z,1008.10
2022-08-20T02:43:09.471Z,1008.11
2022-08-20T02:44:09.598Z,1008.07
2022-08-20T02:45:09.766Z,1008.06
2022-08-20T02:46:10.910Z,1008.08
2022-08-20T02:47:10.062Z,1008.11
2022-08-20T02:48:10.210Z,1008.04
2022-08-20T02:49:10.391Z,1008.04
2022-08-20T02:50:10.503Z,1008.03
2022-08-20T02:51:10.649Z,1008.03
2022-08-20T02:52:10.798Z,1008.04
2022-08-20T02:53:10.950Z,1008.11
2022-08-20T02:54:11.098Z,1008.07
2022-08-20T02:55:11.289Z,1008.08
2022-08-20T02:56:12.389Z,1008.05
2022-08-20T02:57:11.582Z,1008.11
2022-08-20T02:58:11.671Z,1008.12
2022-08-20T02:59:13.704Z,1008.08
2022-08-20T03:00:13.018Z,1008.10
2022-08-20T03:01:12.173Z,1008.09
2022-08-20T03:02:12.298Z,1008.09
2022-08-20T03:03:12.458Z,1008.11
2022-08-20T03:04:12.605Z,1008.14
2022-08-20T03:05:12.817Z,1008.13
2022-08-20T03:06:12.920Z,1008.11
2022-08-20T03:07:13.078Z,1008.14
2022-08-20T03:08:13.219Z,1008.14
2022-08-20T03:09:13.400Z,1008.12
2022-08-20T03:10:13.493Z,1008.15
2022-08-20T03:11:13.658Z,1008.17
2022-08-20T03:12:13.807Z,1008.13
2022-08-20T03:13:13.971Z,1008.15
2022-08-20T03:14:14.120Z,1008.21
2022-08-20T03:15:17.236Z,1008.16
2022-08-20T03:16:14.431Z,1008.19
2022-08-20T03:17:14.580Z,1008.18
2022-08-20T03:18:14.733Z,1008.14
2022-08-20T03:19:14.879Z,1008.15
2022-08-20T03:20:15.026Z,1008.18
2022-08-20T03:21:15.231Z,1008.14
2022-08-20T03:22:15.379Z,1008.12
2022-08-20T03:23:15.562Z,1008.18
2022-08-20T03:24:15.708Z,1008.18
2022-08-20T03:25:15.864Z,1008.18
2022-08-20T03:26:16.033Z,1008.15
2022-08-20T03:27:16.202Z,1008.17
2022-08-20T03:28:16.330Z,1008.14
2022-08-20T03:29:16.489Z,1008.17
2022-08-20T03:30:16.620Z,1008.12
2022-08-20T03:31:16.822Z,1008.09
2022-08-20T03:32:16.902Z,1008.16
2022-08-20T03:33:17.081Z,1008.17
2022-08-20T03:34:17.221Z,1008.17
2022-08-20T03:35:17.434Z,1008.17
2022-08-20T03:36:20.757Z,1008.16
2022-08-20T03:37:18.757Z,1008.12
2022-08-20T03:38:17.865Z,1008.13
2022-08-20T03:39:18.490Z,1008.14
2022-08-20T03:40:18.210Z,1008.08
2022-08-20T03:41:18.381Z,1008.18
2022-08-20T03:42:18.564Z,1008.13
2022-08-20T03:43:18.691Z,1008.09
2022-08-20T03:44:18.851Z,1008.14
2022-08-20T03:45:20.609Z,1008.16
2022-08-20T03:46:22.189Z,1008.14
2022-08-20T03:47:19.332Z,1008.18
2022-08-20T03:48:19.473Z,1008.16
2022-08-20T03:49:19.646Z,1008.15
2022-08-20T03:50:22.911Z,1008.10
2022-08-20T03:51:19.920Z,1008.13
2022-08-20T03:52:20.031Z,1008.12
2022-08-20T03:53:20.170Z,1008.13
2022-08-20T03:54:20.354Z,1008.10
2022-08-20T03:55:20.479Z,1008.11
2022-08-20T03:56:20.708Z,1008.13
2022-08-20T03:57:20.819Z,1008.15
2022-08-20T03:58:20.963Z,1008.14
2022-08-20T03:59:21.112Z,1008.15
2022-08-20T04:00:21.289Z,1008.13
2022-08-20T04:01:44.219Z,1008.16
2022-08-20T04:02:22.603Z,1008.13
2022-08-20T04:03:21.742Z,1008.13
2022-08-20T04:04:21.901Z,1008.14
2022-08-20T04:05:22.072Z,1008.11
2022-08-20T04:06:22.232Z,1008.11
2022-08-20T04:07:22.341Z,1008.10
2022-08-20T04:08:22.441Z,1008.10
2022-08-20T04:09:22.528Z,1008.10
2022-08-20T04:10:22.712Z,1008.10
2022-08-20T04:11:22.814Z,1008.12
2022-08-20T04:12:22.969Z,1008.12
2022-08-20T04:13:23.722Z,1008.18
2022-08-20T04:14:23.329Z,1008.13
2022-08-20T04:15:23.462Z,1008.16
2022-08-20T04:16:23.605Z,1008.21
2022-08-20T04:17:23.700Z,1008.16
2022-08-20T04:18:23.870Z,1008.18
2022-08-20T04:19:24.063Z,1008.16
2022-08-20T04:20:24.257Z,1008.17
2022-08-20T04:21:24.361Z,1008.21
2022-08-20T04:22:24.502Z,1008.18
2022-08-20T04:23:24.670Z,1008.15
2022-08-20T04:24:32.047Z,1008.22
2022-08-20T04:25:25.979Z,1008.27
2022-08-20T04:26:25.159Z,1008.26
2022-08-20T04:27:25.289Z,1008.28
2022-08-20T04:28:25.449Z,1008.31
2022-08-20T04:29:25.671Z,1008.30
2022-08-20T04:30:26.776Z,1008.29
2022-08-20T04:31:25.910Z,1008.35
2022-08-20T04:32:26.082Z,1008.32
2022-08-20T04:33:33.855Z,1008.31
2022-08-20T04:34:27.444Z,1008.39
2022-08-20T04:35:26.542Z,1008.41
2022-08-20T04:36:26.745Z,1008.40
2022-08-20T04:37:26.852Z,1008.44
2022-08-20T04:38:27.025Z,1008.35
2022-08-20T04:39:28.192Z,1008.41
2022-08-20T04:40:27.283Z,1008.37
2022-08-20T04:41:27.454Z,1008.42
2022-08-20T04:42:27.624Z,1008.47
2022-08-20T04:43:27.759Z,1008.44
2022-08-20T04:44:27.933Z,1008.47
2022-08-20T04:45:28.081Z,1008.44
2022-08-20T04:46:28.261Z,1008.51
2022-08-20T04:47:34.775Z,1008.48
2022-08-20T04:48:29.553Z,1008.58
2022-08-20T04:49:28.721Z,1008.56
2022-08-20T04:50:28.873Z,1008.55
2022-08-20T04:51:29.052Z,1008.61
2022-08-20T04:52:29.193Z,1008.58
2022-08-20T04:53:29.370Z,1008.56
2022-08-20T04:54:29.858Z,1008.57
2022-08-20T04:55:29.620Z,1008.58
2022-08-20T04:56:29.801Z,1008.56
2022-08-20T04:57:29.953Z,1008.66
2022-08-20T04:58:30.642Z,1008.65
2022-08-20T04:59:30.702Z,1008.62
2022-08-20T05:00:30.775Z,1008.67
2022-08-20T05:01:30.611Z,1008.67
2022-08-20T05:02:30.733Z,1008.61
2022-08-20T05:03:32.795Z,1008.63
2022-08-20T05:04:31.041Z,1008.64
2022-08-20T05:05:31.135Z,1008.64
2022-08-20T05:06:31.310Z,1008.70
2022-08-20T05:07:31.453Z,1008.71
2022-08-20T05:08:31.660Z,1008.73
2022-08-20T05:09:31.769Z,1008.72
2022-08-20T05:10:32.931Z,1008.71
2022-08-20T05:11:33.854Z,1008.70
2022-08-20T05:12:32.284Z,1008.68
2022-08-20T05:13:32.402Z,1008.66
2022-08-20T05:14:32.582Z,1008.70
2022-08-20T05:15:32.704Z,1008.65
2022-08-20T05:16:32.926Z,1008.74
2022-08-20T05:17:33.022Z,1008.61
2022-08-20T05:18:33.183Z,1008.63
2022-08-20T05:19:38.320Z,1008.67
2022-08-20T05:20:34.512Z,1008.60
2022-08-20T05:21:40.904Z,1008.63
2022-08-20T05:22:34.557Z,1008.70
2022-08-20T05:23:33.995Z,1008.70
2022-08-20T05:24:34.135Z,1008.67
2022-08-20T05:25:34.249Z,1008.65
2022-08-20T05:26:34.374Z,1008.72
2022-08-20T05:27:34.481Z,1008.69
2022-08-20T05:28:36.887Z,1008.64
2022-08-20T05:29:35.743Z,1008.68
2022-08-20T05:30:34.897Z,1008.70
2022-08-20T05:31:35.199Z,1008.67
2022-08-20T05:32:35.205Z,1008.72
2022-08-20T05:33:36.345Z,1008.76
2022-08-20T05:34:35.528Z,1008.79
2022-08-20T05:35:35.665Z,1008.80
2022-08-20T05:36:35.838Z,1008.85
2022-08-20T05:37:36.017Z,1008.89
2022-08-20T05:38:36.178Z,1008.88
2022-08-20T05:39:37.578Z,1008.91
2022-08-20T05:40:36.486Z,1008.89
2022-08-20T05:41:36.638Z,1008.91
2022-08-20T05:42:36.854Z,1008.98
2022-08-20T05:43:36.859Z,1008.96
2022-08-20T05:44:37.019Z,1008.95
2022-08-20T05:45:37.159Z,1008.94
2022-08-20T05:46:37.338Z,1009.01
2022-08-20T05:47:37.507Z,1008.97
2022-08-20T05:48:38.678Z,1008.93
2022-08-20T05:49:37.745Z,1008.97
2022-08-20T05:50:37.925Z,1008.96
2022-08-20T05:51:38.092Z,1008.99
2022-08-20T05:52:38.249Z,1009.02
2022-08-20T05:53:38.398Z,1009.00
2022-08-20T05:54:38.546Z,1009.00
2022-08-20T05:55:38.707Z,1008.97
2022-08-20T05:56:38.927Z,1008.99
2022-08-20T05:57:39.027Z,1008.97
2022-08-20T05:58:39.189Z,1008.98
2022-08-20T05:59:39.363Z,1009.01
2022-08-20T06:00:39.515Z,1008.95
2022-08-20T06:01:39.735Z,1008.97
2022-08-20T06:02:39.887Z,1009.00
2022-08-20T06:03:39.996Z,1009.02
2022-08-20T06:04:40.096Z,1009.00
2022-08-20T06:05:40.243Z,1008.99
2022-08-20T06:06:45.938Z,1009.02
2022-08-20T06:07:41.588Z,1008.99
2022-08-20T06:08:40.737Z,1009.01
2022-08-20T06:09:44.335Z,1009.03
2022-08-20T06:10:42.663Z,1008.98
2022-08-20T06:11:41.197Z,1008.95
2022-08-20T06:12:41.329Z,1008.96
2022-08-20T06:13:41.500Z,1008.99
2022-08-20T06:14:41.638Z,1008.93
2022-08-20T06:15:41.777Z,1008.98
2022-08-20T06:16:46.705Z,1008.92
2022-08-20T06:17:43.055Z,1008.87
2022-08-20T06:18:42.248Z,1008.87
2022-08-20T06:19:44.488Z,1008.84
2022-08-20T06:20:42.538Z,1008.83
2022-08-20T06:21:42.704Z,1008.82
2022-08-20T06:22:42.864Z,1008.86
2022-08-20T06:23:56.810Z,1008.83
2022-08-20T06:24:44.190Z,1008.90
2022-08-20T06:25:43.344Z,1008.83
2022-08-20T06:26:43.536Z,1008.87
2022-08-20T06:27:43.646Z,1008.84
2022-08-20T06:28:43.818Z,1008.87
2022-08-20T06:29:43.964Z,1008.86
2022-08-20T06:30:44.137Z,1008.91
2022-08-20T06:31:44.293Z,1008.87
2022-08-20T06:32:44.447Z,1008.90
2022-08-20T06:33:44.607Z,1008.89
2022-08-20T06:34:50.243Z,1008.85
2022-08-20T06:35:45.897Z,1008.82
2022-08-20T06:36:45.091Z,1008.81
2022-08-20T06:37:45.239Z,1008.82
2022-08-20T06:38:45.407Z,1008.77
2022-08-20T06:39:45.542Z,1008.84
2022-08-20T06:40:45.698Z,1008.83
2022-08-20T06:41:45.828Z,1008.82
2022-08-20T06:42:48.729Z,1008.87
2022-08-20T06:43:46.091Z,1008.87
2022-08-20T06:44:46.258Z,1008.90
2022-08-20T06:45:46.421Z,1008.91
2022-08-20T06:46:46.580Z,1008.87
2022-08-20T06:47:46.719Z,1008.89
2022-08-20T06:48:46.928Z,1008.91
2022-08-20T06:49:47.048Z,1008.92
2022-08-20T06:50:47.962Z,1008.88
2022-08-20T06:51:52.135Z,1008.91
2022-08-20T06:52:52.798Z,1008.89
2022-08-20T06:53:48.700Z,1008.92
2022-08-20T06:54:47.870Z,1008.92
2022-08-20T06:55:48.583Z,1008.90
2022-08-20T06:56:48.151Z,1008.89
2022-08-20T06:57:48.231Z,1008.88
2022-08-20T06:58:48.397Z,1008.93
2022-08-20T06:59:54.352Z,1008.94
2022-08-20T07:00:49.781Z,1008.94
2022-08-20T07:01:48.849Z,1008.96
2022-08-20T07:02:49.094Z,1009.00
2022-08-20T07:03:55.033Z,1008.96
2022-08-20T07:04:50.349Z,1008.95
2022-08-20T07:05:49.484Z,1009.00
2022-08-20T07:06:49.641Z,1008.98
2022-08-20T07:07:49.809Z,1009.00
2022-08-20T07:08:49.942Z,1009.05
2022-08-20T07:09:50.077Z,1009.02
2022-08-20T07:10:50.278Z,1009.05
2022-08-20T07:11:50.430Z,1009.02
2022-08-20T07:12:50.624Z,1009.01
2022-08-20T07:13:50.670Z,1009.04
2022-08-20T07:14:52.805Z,1009.08
2022-08-20T07:15:51.011Z,1009.04
2022-08-20T07:16:51.163Z,1009.04
2022-08-20T07:17:51.329Z,1009.04
2022-08-20T07:18:51.439Z,1009.07
2022-08-20T07:19:51.579Z,1009.09
2022-08-20T07:20:51.733Z,1009.09
2022-08-20T07:21:51.850Z,1009.14
2022-08-20T07:22:52.026Z,1009.09
2022-08-20T07:23:52.171Z,1009.10
2022-08-20T07:24:52.300Z,1009.19
2022-08-20T07:25:52.438Z,1009.18
2022-08-20T07:26:52.600Z,1009.18
2022-08-20T07:27:52.771Z,1009.22
2022-08-20T07:28:52.941Z,1009.23
2022-08-20T07:29:53.104Z,1009.20
2022-08-20T07:30:56.219Z,1009.24
2022-08-20T07:31:53.420Z,1009.19
2022-08-20T07:32:53.668Z,1009.23
2022-08-20T07:33:53.736Z,1009.28
2022-08-20T07:34:53.951Z,1009.30
2022-08-20T07:35:54.091Z,1009.28
2022-08-20T07:36:54.319Z,1009.27
2022-08-20T07:37:54.388Z,1009.26
2022-08-20T07:38:54.563Z,1009.25
2022-08-20T07:39:54.762Z,1009.18
2022-08-20T07:40:54.871Z,1009.18
2022-08-20T07:41:56.733Z,1009.24
2022-08-20T07:42:55.370Z,1009.22
2022-08-20T07:43:55.271Z,1009.19
2022-08-20T07:44:55.480Z,1009.23
2022-08-20T07:45:55.657Z,1009.24
2022-08-20T07:46:55.762Z,1009.16
2022-08-20T07:47:56.050Z,1009.19
2022-08-20T07:48:56.079Z,1009.22
2022-08-20T07:49:56.293Z,1009.23
2022-08-20T07:50:56.453Z,1009.20
2022-08-20T07:51:56.572Z,1009.19
2022-08-20T07:52:56.884Z,1009.25
2022-08-20T07:53:56.862Z,1009.23
2022-08-20T07:54:57.029Z,1009.20
2022-08-20T07:55:59.330Z,1009.27
2022-08-20T07:56:57.340Z,1009.29
2022-08-20T07:57:57.462Z,1009.35
2022-08-20T07:58:57.662Z,1009.34
2022-08-20T07:59:57.780Z,1009.33
2022-08-20T08:00:58.062Z,1009.33
2022-08-20T08:01:58.134Z,1009.33
2022-08-20T08:02:58.323Z,1009.28
2022-08-20T08:03:58.434Z,1009.30
2022-08-20T08:04:58.600Z,1009.29
2022-08-20T08:05:58.775Z,1009.26
2022-08-20T08:06:58.923Z,1009.28
2022-08-20T08:07:59.055Z,1009.26
2022-08-20T08:08:59.201Z,1009.33
2022-08-20T08:09:59.357Z,1009.36
2022-08-20T08:10:59.619Z,1009.27
2022-08-20T08:11:59.655Z,1009.32
2022-08-20T08:12:59.796Z,1009.28
2022-08-20T08:13:59.953Z,1009.30
2022-08-20T08:15:00.122Z,1009.29
2022-08-20T08:16:00.343Z,1009.29
2022-08-20T08:17:00.497Z,1009.33
2022-08-20T08:18:00.607Z,1009.34
2022-08-20T08:19:00.726Z,1009.29
2022-08-20T08:20:00.883Z,1009.33
2022-08-20T08:21:00.992Z,1009.34
2022-08-20T08:22:01.130Z,1009.35
2022-08-20T08:23:01.202Z,1009.34
2022-08-20T08:24:01.377Z,1009.32
2022-08-20T08:25:01.496Z,1009.31
2022-08-20T08:26:01.595Z,1009.37
2022-08-20T08:27:01.751Z,1009.33
2022-08-20T08:28:01.884Z,1009.34
2022-08-20T08:29:01.976Z,1009.33
2022-08-20T08:30:02.111Z,1009.32
2022-08-20T08:31:02.203Z,1009.36
2022-08-20T08:32:02.345Z,1009.36
2022-08-20T08:33:02.453Z,1009.35
2022-08-20T08:34:02.563Z,1009.28
2022-08-20T08:35:02.645Z,1009.34
2022-08-20T08:36:02.833Z,1009.39
2022-08-20T08:37:02.955Z,1009.37
2022-08-20T08:38:03.053Z,1009.38
2022-08-20T08:39:03.153Z,1009.30
2022-08-20T08:40:03.338Z,1009.38
2022-08-20T08:41:03.401Z,1009.31
2022-08-20T08:42:03.574Z,1009.32
2022-08-20T08:43:03.673Z,1009.35
2022-08-20T08:44:03.772Z,1009.31
2022-08-20T08:45:03.912Z,1009.29
2022-08-20T08:46:04.086Z,1009.30
2022-08-20T08:47:04.177Z,1009.37
2022-08-20T08:48:04.318Z,1009.34
2022-08-20T08:49:04.406Z,1009.35
2022-08-20T08:50:04.526Z,1009.31
2022-08-20T08:51:04.635Z,1009.31
2022-08-20T08:52:04.813Z,1009.35
2022-08-20T08:53:04.906Z,1009.30
2022-08-20T08:54:07.221Z,1009.33
2022-08-20T08:55:05.187Z,1009.36
2022-08-20T08:56:05.297Z,1009.36
2022-08-20T08:57:05.434Z,1009.38
2022-08-20T08:58:17.030Z,1009.27
2022-08-20T08:59:06.696Z,1009.31
2022-08-20T09:00:05.795Z,1009.35
2022-08-20T09:01:09.683Z,1009.29
2022-08-20T09:02:07.118Z,1009.24
2022-08-20T09:03:07.423Z,1009.26
2022-08-20T09:04:06.294Z,1009.25
2022-08-20T09:05:06.367Z,1009.34
2022-08-20T09:06:06.516Z,1009.33
2022-08-20T09:07:06.616Z,1009.38
2022-08-20T09:08:06.767Z,1009.40
2022-08-20T09:09:06.866Z,1009.41
2022-08-20T09:10:07.024Z,1009.40
2022-08-20T09:11:07.156Z,1009.43
2022-08-20T09:12:07.328Z,1009.45
2022-08-20T09:13:07.458Z,1009.47
2022-08-20T09:14:07.567Z,1009.42
2022-08-20T09:15:07.647Z,1009.41
2022-08-20T09:16:07.818Z,1009.40
2022-08-20T09:17:07.933Z,1009.47
2022-08-20T09:18:08.015Z,1009.43
2022-08-20T09:19:08.127Z,1009.39
2022-08-20T09:20:08.276Z,1009.38
2022-08-20T09:21:08.454Z,1009.43
2022-08-20T09:22:08.576Z,1009.39
2022-08-20T09:23:08.677Z,1009.38
2022-08-20T09:24:08.789Z,1009.37
2022-08-20T09:25:08.898Z,1009.42
2022-08-20T09:26:09.032Z,1009.38
2022-08-20T09:27:09.170Z,1009.42
2022-08-20T09:28:09.330Z,1009.39
2022-08-20T09:29:09.451Z,1009.44
2022-08-20T09:30:09.568Z,1009.37
2022-08-20T09:31:09.765Z,1009.47
2022-08-20T09:32:09.812Z,1009.46
2022-08-20T09:33:09.930Z,1009.38
2022-08-20T09:34:10.028Z,1009.50
2022-08-20T09:35:10.158Z,1009.48
2022-08-20T09:36:29.019Z,1009.44
2022-08-20T09:37:11.410Z,1009.40
2022-08-20T09:38:10.550Z,1009.38
2022-08-20T09:39:10.668Z,1009.38
2022-08-20T09:40:10.815Z,1009.32
2022-08-20T09:41:10.871Z,1009.39
2022-08-20T09:42:11.018Z,1009.37
2022-08-20T09:43:11.137Z,1009.38
2022-08-20T09:44:11.289Z,1009.41
2022-08-20T09:45:11.657Z,1009.46
2022-08-20T09:46:11.480Z,1009.45
2022-08-20T09:47:11.628Z,1009.41
2022-08-20T09:48:11.831Z,1009.41
2022-08-20T09:49:11.867Z,1009.36
2022-08-20T09:50:12.020Z,1009.38
2022-08-20T09:51:12.112Z,1009.44
2022-08-20T09:52:12.252Z,1009.37
2022-08-20T09:53:12.391Z,1009.35
2022-08-20T09:54:12.548Z,1009.35
2022-08-20T09:55:12.635Z,1009.35
2022-08-20T09:56:12.771Z,1009.39
2022-08-20T09:57:12.919Z,1009.43
2022-08-20T09:58:13.021Z,1009.45
2022-08-20T09:59:13.189Z,1009.41
2022-08-20T10:00:13.271Z,1009.45
2022-08-20T10:01:13.885Z,1009.39
2022-08-20T10:02:13.540Z,1009.46
2022-08-20T10:03:13.653Z,1009.43
2022-08-20T10:04:14.480Z,1009.37
2022-08-20T10:05:13.916Z,1009.35
2022-08-20T10:06:14.022Z,1009.35
2022-08-20T10:07:16.043Z,1009.37
2022-08-20T10:08:14.225Z,1009.34
2022-08-20T10:09:14.352Z,1009.35
2022-08-20T10:10:14.572Z,1009.40
2022-08-20T10:11:14.614Z,1009.39
2022-08-20T10:12:14.761Z,1009.35
2022-08-20T10:13:15.386Z,1009.40
2022-08-20T10:14:15.002Z,1009.44
2022-08-20T10:15:15.157Z,1009.44
2022-08-20T10:16:15.658Z,1009.40
2022-08-20T10:17:15.341Z,1009.41
2022-08-20T10:18:15.482Z,1009.47
2022-08-20T10:19:15.614Z,1009.43
2022-08-20T10:20:15.781Z,1009.44
2022-08-20T10:21:15.861Z,1009.41
2022-08-20T10:22:16.002Z,1009.41
2022-08-20T10:23:16.143Z,1009.39
2022-08-20T10:24:16.306Z,1009.40
2022-08-20T10:25:16.415Z,1009.45
2022-08-20T10:26:16.571Z,1009.46
2022-08-20T10:27:16.696Z,1009.46
2022-08-20T10:28:16.802Z,1009.43
2022-08-20T10:29:16.944Z,1009.40
2022-08-20T10:30:17.083Z,1009.48
2022-08-20T10:31:17.236Z,1009.46
2022-08-20T10:32:17.395Z,1009.47
2022-08-20T10:33:17.495Z,1009.35
2022-08-20T10:34:17.645Z,1009.37
2022-08-20T10:35:17.777Z,1009.42
2022-08-20T10:36:17.879Z,1009.39
2022-08-20T10:37:18.024Z,1009.37
2022-08-20T10:38:18.136Z,1009.33
2022-08-20T10:39:18.238Z,1009.47
2022-08-20T10:40:18.433Z,1009.39
2022-08-20T10:41:18.515Z,1009.42
2022-08-20T10:42:18.676Z,1009.40
2022-08-20T10:43:20.729Z,1009.37
2022-08-20T10:44:18.955Z,1009.34
2022-08-20T10:45:19.036Z,1009.37
2022-08-20T10:46:19.157Z,1009.40
2022-08-20T10:47:19.334Z,1009.34
2022-08-20T10:48:21.504Z,1009.38
2022-08-20T10:49:19.558Z,1009.35
2022-08-20T10:50:19.696Z,1009.36
2022-08-20T10:51:19.836Z,1009.30
2022-08-20T10:52:19.990Z,1009.33
2022-08-20T10:53:20.118Z,1009.38
2022-08-20T10:54:20.248Z,1009.42
2022-08-20T10:55:20.329Z,1009.42
2022-08-20T10:56:20.466Z,1009.35
2022-08-20T10:57:20.865Z,1009.37
2022-08-20T10:58:20.757Z,1009.38
2022-08-20T10:59:20.933Z,1009.35
2022-08-20T11:00:21.042Z,1009.46
2022-08-20T11:01:32.749Z,1009.38
2022-08-20T11:02:22.303Z,1009.38
2022-08-20T11:03:21.438Z,1009.41
2022-08-20T11:04:21.611Z,1009.34
2022-08-20T11:05:21.660Z,1009.45
2022-08-20T11:06:21.766Z,1009.41
2022-08-20T11:07:21.898Z,1009.50
2022-08-20T11:08:33.714Z,1009.50
2022-08-20T11:09:23.127Z,1009.43
2022-08-20T11:10:22.257Z,1009.53
2022-08-20T11:11:22.386Z,1009.57
2022-08-20T11:12:22.560Z,1009.62
2022-08-20T11:13:22.639Z,1009.55
2022-08-20T11:14:22.809Z,1009.64
2022-08-20T11:15:22.891Z,1009.75
2022-08-20T11:16:23.044Z,1009.75
2022-08-20T11:17:23.160Z,1009.73
2022-08-20T11:18:23.291Z,1009.76
2022-08-20T11:19:23.431Z,1009.74
2022-08-20T11:20:23.571Z,1009.69
2022-08-20T11:21:23.698Z,1009.65
2022-08-20T11:22:23.872Z,1009.71
2022-08-20T11:23:23.940Z,1009.67
2022-08-20T11:24:24.111Z,1009.65
2022-08-20T11:25:24.193Z,1009.72
2022-08-20T11:26:24.360Z,1009.69
2022-08-20T11:27:24.453Z,1009.74
2022-08-20T11:28:31.392Z,1009.74
2022-08-20T11:29:25.719Z,1009.77
2022-08-20T11:30:24.821Z,1009.82
2022-08-20T11:31:24.921Z,1009.82
2022-08-20T11:32:25.072Z,1009.84
2022-08-20T11:33:25.192Z,1009.84
2022-08-20T11:34:25.341Z,1009.81
2022-08-20T11:35:42.311Z,1009.80
2022-08-20T11:36:26.594Z,1009.82
2022-08-20T11:37:25.716Z,1009.84
2022-08-20T11:38:25.861Z,1009.88
2022-08-20T11:39:26.002Z,1009.87
2022-08-20T11:40:26.212Z,1009.82
2022-08-20T11:41:26.269Z,1009.92
2022-08-20T11:42:26.401Z,1009.87
2022-08-20T11:43:26.483Z,1009.90
2022-08-20T11:44:26.649Z,1009.89
2022-08-20T11:45:26.741Z,1009.86
2022-08-20T11:46:28.723Z,1009.88
2022-08-20T11:47:26.983Z,1009.96
2022-08-20T11:48:27.130Z,1009.98
2022-08-20T11:49:27.289Z,1009.92
2022-08-20T11:50:27.391Z,1010.00
2022-08-20T11:51:27.498Z,1009.93
2022-08-20T11:52:27.635Z,1009.90
2022-08-20T11:53:27.783Z,1009.87
2022-08-20T11:54:27.974Z,1009.89
2022-08-20T11:55:28.610Z,1009.93
2022-08-20T11:56:28.196Z,1009.93
2022-08-20T11:57:28.292Z,1009.93
2022-08-20T11:58:28.442Z,1009.92
2022-08-20T11:59:28.571Z,1009.92
2022-08-20T12:00:30.408Z,1009.88
2022-08-20T12:01:28.865Z,1009.90
2022-08-20T12:02:28.993Z,1009.94
2022-08-20T12:03:29.096Z,1009.93
2022-08-20T12:04:29.204Z,1009.92
2022-08-20T12:05:29.387Z,1009.88
2022-08-20T12:06:29.451Z,1009.87
2022-08-20T12:07:29.523Z,1009.89